createdAt,value
2023-08-26T00:00:09.969Z,16.35
2023-08-26T00:02:40.494Z,14.77
2023-08-26T00:05:08.751Z,14.73
2023-08-26T00:07:36.535Z,18.10
2023-08-26T00:10:04.737Z,14.98
2023-08-26T00:12:32.593Z,15.45
2023-08-26T00:15:01.771Z,15.15
2023-08-26T00:17:29.597Z,15.70
2023-08-26T00:19:57.420Z,18.48
2023-08-26T00:22:25.877Z,17.08
2023-08-26T00:24:53.681Z,15.30
2023-08-26T00:27:21.502Z,18.02
2023-08-26T00:29:49.281Z,15.70
2023-08-26T00:32:18.455Z,15.70
2023-08-26T00:34:46.279Z,15.52
2023-08-26T00:37:14.167Z,15.20
2023-08-26T00:39:42.117Z,14.90
2023-08-26T00:42:10.644Z,15.52
2023-08-26T00:44:38.560Z,14.85
2023-08-26T00:47:06.674Z,12.15
2023-08-26T00:49:36.744Z,14.20
2023-08-26T00:52:04.845Z,13.40
2023-08-26T00:54:37.002Z,13.55
2023-08-26T00:57:06.799Z,12.57
2023-08-26T00:59:34.781Z,12.35
2023-08-26T01:02:03.643Z,12.25
2023-08-26T01:04:31.954Z,13.57
2023-08-26T01:07:01.104Z,12.43
2023-08-26T01:09:29.656Z,13.82
2023-08-26T01:12:04.118Z,11.52
2023-08-26T01:14:38.161Z,12.38
2023-08-26T01:17:07.370Z,14.25
2023-08-26T01:19:39.642Z,11.63
2023-08-26T01:22:10.639Z,12.02
2023-08-26T01:24:41.325Z,10.48
2023-08-26T01:27:09.370Z,11.07
2023-08-26T01:29:37.271Z,13.20
2023-08-26T01:32:18.069Z,14.20
2023-08-26T01:34:50.773Z,14.27
2023-08-26T01:37:20.756Z,14.13
2023-08-26T01:39:51.044Z,11.35
2023-08-26T01:42:20.702Z,10.82
2023-08-26T01:44:50.527Z,11.80
2023-08-26T01:47:19.029Z,11.48
2023-08-26T01:49:46.911Z,13.43
2023-08-26T01:52:15.838Z,13.13
2023-08-26T01:54:44.174Z,10.80
2023-08-26T01:57:13.328Z,15.00
2023-08-26T01:59:41.140Z,13.48
2023-08-26T02:02:09.127Z,11.55
2023-08-26T02:04:39.493Z,12.05
2023-08-26T02:07:07.636Z,15.15
2023-08-26T02:09:35.869Z,15.52
2023-08-26T02:12:03.708Z,12.38
2023-08-26T02:14:32.990Z,10.82
2023-08-26T02:17:00.802Z,9.93
2023-08-26T02:19:28.628Z,10.55
2023-08-26T02:21:57.966Z,11.75
2023-08-26T02:24:25.783Z,10.35
2023-08-26T02:26:53.670Z,11.82
2023-08-26T02:29:22.475Z,7.90
2023-08-26T02:31:52.049Z,9.18
2023-08-26T02:34:19.936Z,8.80
2023-08-26T02:36:47.764Z,9.10
2023-08-26T02:39:16.990Z,11.63
2023-08-26T02:41:44.812Z,8.60
2023-08-26T02:44:13.125Z,8.77
2023-08-26T02:46:40.971Z,10.48
2023-08-26T02:49:12.190Z,8.98
2023-08-26T02:51:39.995Z,7.28
2023-08-26T02:54:07.959Z,9.05
2023-08-26T02:56:35.783Z,7.68
2023-08-26T02:59:03.631Z,8.07
2023-08-26T03:01:31.661Z,12.52
2023-08-26T03:03:59.747Z,10.75
2023-08-26T03:06:30.101Z,10.48
2023-08-26T03:08:58.232Z,12.75
2023-08-26T03:11:26.892Z,15.43
2023-08-26T03:13:54.757Z,13.40
2023-08-26T03:16:22.849Z,14.30
2023-08-26T03:18:50.792Z,16.25
2023-08-26T03:21:18.574Z,13.40
2023-08-26T03:23:47.851Z,12.02
2023-08-26T03:26:15.625Z,12.63
2023-08-26T03:28:43.416Z,22.65
2023-08-26T03:31:11.385Z,14.27
2023-08-26T03:33:45.497Z,14.05
2023-08-26T03:36:14.229Z,15.77
2023-08-26T03:38:42.132Z,15.43
2023-08-26T03:41:11.340Z,12.88
2023-08-26T03:43:39.209Z,15.93
2023-08-26T03:46:07.337Z,12.05
2023-08-26T03:48:35.368Z,11.32
2023-08-26T03:51:03.800Z,13.77
2023-08-26T03:53:31.687Z,9.48
2023-08-26T03:55:59.588Z,10.25
2023-08-26T03:58:28.912Z,12.93
2023-08-26T04:01:02.302Z,11.13
2023-08-26T04:03:30.404Z,11.73
2023-08-26T04:06:02.015Z,12.27
2023-08-26T04:08:30.054Z,12.45
2023-08-26T04:10:58.284Z,12.02
2023-08-26T04:13:29.003Z,12.38
2023-08-26T04:15:58.217Z,20.38
2023-08-26T04:18:26.726Z,20.80
2023-08-26T04:20:54.647Z,20.80
2023-08-26T04:23:22.796Z,22.17
2023-08-26T04:25:51.949Z,23.88
2023-08-26T04:28:20.311Z,26.80
2023-08-26T04:30:49.551Z,29.08
2023-08-26T04:33:17.624Z,24.77
2023-08-26T04:35:45.466Z,19.23
2023-08-26T04:38:14.273Z,26.55
2023-08-26T04:40:43.200Z,24.65
2023-08-26T04:43:11.932Z,23.88
2023-08-26T04:45:40.449Z,22.35
2023-08-26T04:48:10.442Z,24.67
2023-08-26T04:50:38.829Z,30.95
2023-08-26T04:53:06.642Z,35.08
2023-08-26T04:55:34.588Z,28.88
2023-08-26T04:58:03.964Z,32.33
2023-08-26T05:00:32.497Z,36.88
2023-08-26T05:03:00.493Z,37.22
2023-08-26T05:05:29.842Z,34.92
2023-08-26T05:07:57.976Z,38.00
2023-08-26T05:10:26.054Z,39.42
2023-08-26T05:12:54.679Z,40.60
2023-08-26T05:15:23.393Z,27.55
2023-08-26T05:17:51.255Z,36.75
2023-08-26T05:20:19.096Z,30.08
2023-08-26T05:22:48.264Z,23.63
2023-08-26T05:25:16.221Z,23.98
2023-08-26T05:27:44.757Z,26.95
2023-08-26T05:30:14.774Z,37.28
2023-08-26T05:32:49.334Z,30.05
2023-08-26T05:35:17.298Z,26.73
2023-08-26T05:37:46.323Z,28.52
2023-08-26T05:40:17.447Z,30.63
2023-08-26T05:42:45.329Z,32.40
2023-08-26T05:45:13.178Z,35.70
2023-08-26T05:47:41.004Z,34.90
2023-08-26T05:50:09.474Z,35.03
2023-08-26T05:52:37.320Z,31.58
2023-08-26T05:55:05.450Z,33.13
2023-08-26T05:57:34.674Z,28.55
2023-08-26T06:00:04.014Z,29.02
2023-08-26T06:02:44.108Z,25.73
2023-08-26T06:05:15.136Z,22.30
2023-08-26T06:07:43.373Z,25.23
2023-08-26T06:10:11.723Z,20.13
2023-08-26T06:12:42.322Z,25.50
2023-08-26T06:15:13.186Z,21.65
2023-08-26T06:17:42.387Z,20.02
2023-08-26T06:20:16.106Z,21.58
2023-08-26T06:22:46.421Z,24.33
2023-08-26T06:25:14.405Z,21.17
2023-08-26T06:27:44.109Z,20.45
2023-08-26T06:30:12.642Z,18.55
2023-08-26T06:32:40.665Z,23.95
2023-08-26T06:35:11.583Z,20.92
2023-08-26T06:37:40.455Z,20.98
2023-08-26T06:40:09.389Z,18.90
2023-08-26T06:42:37.392Z,21.08
2023-08-26T06:45:12.088Z,18.58
2023-08-26T06:47:40.327Z,20.30
2023-08-26T06:50:09.548Z,21.33
2023-08-26T06:52:39.502Z,19.67
2023-08-26T06:55:10.280Z,18.33
2023-08-26T06:57:38.236Z,20.20
2023-08-26T07:00:08.117Z,21.17
2023-08-26T07:02:37.861Z,21.73
2023-08-26T07:05:06.870Z,22.42
2023-08-26T07:07:34.679Z,20.55
2023-08-26T07:10:02.693Z,21.15
2023-08-26T07:12:30.565Z,21.95
2023-08-26T07:14:58.395Z,21.10
2023-08-26T07:17:26.262Z,19.52
2023-08-26T07:19:55.444Z,22.73
2023-08-26T07:22:29.674Z,20.80
2023-08-26T07:24:58.412Z,19.80
2023-08-26T07:27:26.219Z,20.00
2023-08-26T07:29:54.012Z,19.50
2023-08-26T07:32:21.868Z,21.48
2023-08-26T07:34:52.498Z,20.63
2023-08-26T07:37:21.628Z,19.83
2023-08-26T07:39:50.640Z,19.05
2023-08-26T07:42:18.538Z,18.23
2023-08-26T07:44:46.374Z,17.60
2023-08-26T07:47:14.328Z,19.33
2023-08-26T07:49:42.447Z,18.05
2023-08-26T07:52:10.353Z,17.42
2023-08-26T07:54:39.633Z,16.10
2023-08-26T07:57:07.655Z,20.00
2023-08-26T07:59:35.478Z,21.02
2023-08-26T08:02:03.340Z,18.17
2023-08-26T08:04:31.121Z,16.70
2023-08-26T08:06:58.964Z,17.60
2023-08-26T08:09:26.805Z,19.48
2023-08-26T08:11:56.015Z,17.17
2023-08-26T08:14:23.890Z,16.27
2023-08-26T08:16:51.709Z,13.25
2023-08-26T08:19:19.484Z,15.52
2023-08-26T08:21:47.281Z,15.02
2023-08-26T08:24:15.100Z,15.98
2023-08-26T08:26:45.009Z,15.07
2023-08-26T08:29:14.310Z,19.65
2023-08-26T08:31:42.228Z,16.67
2023-08-26T08:34:10.073Z,16.92
2023-08-26T08:36:37.939Z,16.58
2023-08-26T08:39:07.273Z,17.77
2023-08-26T08:41:36.615Z,12.95
2023-08-26T08:44:11.443Z,11.77
2023-08-26T08:46:41.290Z,12.20
2023-08-26T08:49:09.422Z,12.45
2023-08-26T08:51:38.969Z,13.68
2023-08-26T08:54:08.200Z,11.73
2023-08-26T08:56:37.297Z,11.15
2023-08-26T08:59:07.251Z,12.45
2023-08-26T09:01:35.484Z,12.43
2023-08-26T09:04:08.571Z,9.95
2023-08-26T09:06:36.379Z,11.18
2023-08-26T09:09:14.343Z,9.27
2023-08-26T09:11:51.365Z,9.18
2023-08-26T09:14:19.429Z,6.75
2023-08-26T09:16:47.420Z,6.97
2023-08-26T09:19:16.657Z,7.43
2023-08-26T09:21:44.580Z,6.07
2023-08-26T09:24:14.286Z,6.53
2023-08-26T09:26:42.511Z,8.30
2023-08-26T09:29:16.218Z,5.57
2023-08-26T09:31:47.909Z,5.75
2023-08-26T09:34:27.509Z,5.38
2023-08-26T09:36:55.285Z,5.35
2023-08-26T09:39:23.296Z,5.35
2023-08-26T09:41:51.870Z,5.25
2023-08-26T09:44:22.275Z,7.10
2023-08-26T09:46:50.950Z,8.40
2023-08-26T09:49:20.714Z,6.75
2023-08-26T09:51:50.198Z,6.38
2023-08-26T09:54:19.146Z,5.70
2023-08-26T09:56:48.035Z,5.30
2023-08-26T09:59:16.888Z,5.07
2023-08-26T10:01:44.918Z,5.50
2023-08-26T10:04:15.359Z,5.45
2023-08-26T10:06:46.083Z,4.65
2023-08-26T10:09:18.944Z,6.82
2023-08-26T10:11:52.122Z,4.95
2023-08-26T10:14:20.749Z,5.10
2023-08-26T10:16:49.822Z,5.60
2023-08-26T10:19:17.718Z,7.85
2023-08-26T10:21:49.414Z,8.90
2023-08-26T10:24:17.680Z,4.63
2023-08-26T10:26:46.081Z,4.82
2023-08-26T10:29:14.621Z,4.97
2023-08-26T10:31:44.325Z,5.30
2023-08-26T10:34:16.101Z,6.00
2023-08-26T10:36:49.729Z,7.88
2023-08-26T10:39:20.271Z,4.70
2023-08-26T10:42:10.923Z,5.88
2023-08-26T10:44:39.493Z,4.35
2023-08-26T10:47:07.953Z,5.07
2023-08-26T10:49:37.151Z,5.72
2023-08-26T10:52:18.241Z,6.20
2023-08-26T10:54:47.131Z,5.43
2023-08-26T10:57:15.367Z,4.20
2023-08-26T10:59:43.876Z,6.45
2023-08-26T11:02:13.319Z,7.53
2023-08-26T11:04:45.246Z,7.15
2023-08-26T11:07:18.406Z,5.22
2023-08-26T11:09:46.934Z,5.15
2023-08-26T11:12:32.417Z,5.82
2023-08-26T11:15:05.358Z,4.45
2023-08-26T11:17:46.265Z,3.90
2023-08-26T11:20:19.948Z,3.72
2023-08-26T11:22:49.165Z,3.45
2023-08-26T11:25:18.096Z,3.72
2023-08-26T11:27:46.308Z,4.32
2023-08-26T11:30:15.163Z,5.50
2023-08-26T11:32:43.242Z,3.20
2023-08-26T11:35:12.218Z,6.50
2023-08-26T11:37:42.935Z,4.68
2023-08-26T11:40:14.065Z,3.85
2023-08-26T11:42:42.479Z,4.28
2023-08-26T11:45:11.030Z,2.72
2023-08-26T11:47:38.999Z,4.97
2023-08-26T11:50:07.786Z,5.45
2023-08-26T11:52:36.354Z,4.80
2023-08-26T11:55:05.465Z,4.25
2023-08-26T11:57:37.325Z,3.75
2023-08-26T12:00:10.498Z,5.22
2023-08-26T12:02:42.826Z,3.03
2023-08-26T12:05:10.781Z,4.82
2023-08-26T12:07:45.565Z,3.63
2023-08-26T12:10:15.124Z,3.60
2023-08-26T12:12:44.260Z,3.42
2023-08-26T12:15:13.696Z,3.92
2023-08-26T12:17:47.566Z,3.35
2023-08-26T12:20:26.505Z,6.80
2023-08-26T12:22:55.759Z,1.58
2023-08-26T12:25:27.028Z,4.07
2023-08-26T12:28:06.133Z,4.03
2023-08-26T12:30:33.956Z,2.72
2023-08-26T12:33:01.946Z,5.72
2023-08-26T12:35:29.785Z,3.65
2023-08-26T12:37:57.795Z,3.22
2023-08-26T12:40:25.986Z,1.95
2023-08-26T12:42:54.239Z,2.90
2023-08-26T12:45:23.337Z,3.13
2023-08-26T12:47:51.283Z,3.05
2023-08-26T12:50:19.404Z,3.83
2023-08-26T12:52:47.246Z,3.78
2023-08-26T12:55:15.196Z,2.85
2023-08-26T12:57:43.077Z,4.70
2023-08-26T13:00:11.923Z,5.28
2023-08-26T13:02:41.785Z,2.33
2023-08-26T13:05:11.779Z,3.38
2023-08-26T13:07:40.406Z,2.10
2023-08-26T13:10:09.343Z,3.47
2023-08-26T13:12:37.449Z,2.20
2023-08-26T13:15:06.025Z,3.67
2023-08-26T13:17:34.060Z,2.17
2023-08-26T13:20:03.239Z,3.25
2023-08-26T13:22:31.023Z,3.40
2023-08-26T13:24:58.887Z,5.30
2023-08-26T13:27:26.752Z,1.98
2023-08-26T13:29:54.545Z,3.80
2023-08-26T13:32:22.378Z,1.42
2023-08-26T13:34:50.144Z,1.90
2023-08-26T13:37:19.315Z,2.72
2023-08-26T13:39:47.099Z,1.10
2023-08-26T13:42:14.928Z,3.28
2023-08-26T13:44:42.713Z,2.15
2023-08-26T13:47:10.519Z,2.15
2023-08-26T13:49:38.313Z,4.82
2023-08-26T13:52:06.813Z,2.55
2023-08-26T13:54:36.064Z,2.38
2023-08-26T13:57:04.654Z,2.65
2023-08-26T13:59:33.508Z,3.92
2023-08-26T14:02:01.639Z,4.63
2023-08-26T14:04:29.686Z,2.50
2023-08-26T14:06:57.449Z,5.25
2023-08-26T14:09:26.294Z,3.78
2023-08-26T14:11:55.463Z,2.63
2023-08-26T14:14:23.288Z,3.33
2023-08-26T14:16:51.108Z,4.68
2023-08-26T14:19:18.952Z,2.75
2023-08-26T14:21:46.731Z,5.13
2023-08-26T14:24:14.528Z,2.63
2023-08-26T14:26:42.341Z,3.72
2023-08-26T14:29:11.479Z,3.05
2023-08-26T14:31:39.252Z,2.15
2023-08-26T14:34:07.073Z,4.47
2023-08-26T14:36:34.877Z,2.45
2023-08-26T14:39:03.499Z,2.50
2023-08-26T14:41:33.829Z,1.67
2023-08-26T14:44:03.730Z,2.25
2023-08-26T14:46:33.732Z,3.75
2023-08-26T14:49:01.636Z,2.88
2023-08-26T14:51:29.457Z,2.90
2023-08-26T14:53:57.235Z,2.78
2023-08-26T14:56:25.063Z,3.08
2023-08-26T14:58:52.835Z,3.65
2023-08-26T15:01:20.665Z,4.45
2023-08-26T15:03:50.012Z,1.73
2023-08-26T15:06:17.865Z,3.42
2023-08-26T15:08:45.633Z,2.53
2023-08-26T15:11:13.480Z,2.97
2023-08-26T15:13:41.269Z,2.40
2023-08-26T15:16:09.560Z,4.75
2023-08-26T15:18:37.368Z,4.07
2023-08-26T15:21:07.651Z,3.20
2023-08-26T15:23:35.473Z,2.58
2023-08-26T15:26:04.618Z,4.07
2023-08-26T15:28:32.548Z,1.88
2023-08-26T15:31:00.351Z,4.10
2023-08-26T15:33:28.236Z,2.47
2023-08-26T15:35:57.644Z,3.35
2023-08-26T15:38:26.788Z,2.30
2023-08-26T15:40:55.409Z,2.22
2023-08-26T15:43:23.352Z,3.97
2023-08-26T15:45:51.728Z,2.35
2023-08-26T15:48:20.048Z,2.67
2023-08-26T15:50:47.987Z,5.45
2023-08-26T15:53:18.317Z,3.92
2023-08-26T15:55:47.716Z,5.07
2023-08-26T15:58:16.049Z,1.92
2023-08-26T16:00:44.286Z,4.00
2023-08-26T16:03:12.185Z,3.72
2023-08-26T16:05:41.117Z,2.22
2023-08-26T16:08:09.910Z,3.47
2023-08-26T16:10:38.606Z,3.60
2023-08-26T16:13:07.841Z,4.22
2023-08-26T16:15:36.260Z,4.43
2023-08-26T16:18:04.473Z,4.80
2023-08-26T16:20:32.469Z,4.82
2023-08-26T16:23:00.780Z,3.10
2023-08-26T16:25:28.876Z,4.13
2023-08-26T16:27:57.136Z,2.78
2023-08-26T16:30:26.330Z,2.80
2023-08-26T16:32:54.760Z,3.13
2023-08-26T16:35:22.646Z,5.63
2023-08-26T16:37:50.406Z,2.65
2023-08-26T16:40:18.350Z,2.50
2023-08-26T16:42:46.148Z,2.97
2023-08-26T16:45:15.707Z,3.90
2023-08-26T16:47:44.841Z,2.60
2023-08-26T16:50:12.710Z,2.40
2023-08-26T16:52:40.608Z,3.83
2023-08-26T16:55:09.091Z,2.88
2023-08-26T16:57:36.895Z,2.10
2023-08-26T17:00:05.477Z,3.08
2023-08-26T17:02:33.480Z,2.78
2023-08-26T17:05:02.731Z,2.53
2023-08-26T17:07:31.685Z,4.10
2023-08-26T17:09:59.522Z,1.98
2023-08-26T17:12:27.331Z,2.38
2023-08-26T17:14:55.162Z,2.45
2023-08-26T17:17:23.039Z,2.47
2023-08-26T17:19:51.058Z,2.33
2023-08-26T17:22:20.426Z,3.03
2023-08-26T17:24:48.405Z,2.67
2023-08-26T17:27:16.217Z,4.00
2023-08-26T17:29:44.034Z,2.92
2023-08-26T17:32:13.063Z,2.70
2023-08-26T17:34:41.410Z,2.95
2023-08-26T17:37:09.397Z,4.15
2023-08-26T17:39:38.572Z,4.47
2023-08-26T17:42:06.675Z,2.92
2023-08-26T17:44:35.563Z,4.55
2023-08-26T17:47:04.106Z,2.03
2023-08-26T17:49:31.912Z,2.60
2023-08-26T17:51:59.706Z,3.58
2023-08-26T17:54:27.520Z,3.53
2023-08-26T17:56:56.687Z,4.25
2023-08-26T17:59:24.528Z,3.85
2023-08-26T18:01:52.383Z,2.67
2023-08-26T18:04:20.165Z,3.90
2023-08-26T18:06:47.979Z,3.58
2023-08-26T18:09:15.875Z,3.55
2023-08-26T18:11:43.906Z,3.03
2023-08-26T18:14:13.099Z,4.18
2023-08-26T18:16:41.122Z,3.38
2023-08-26T18:19:09.382Z,3.30
2023-08-26T18:21:37.213Z,2.60
2023-08-26T18:24:05.544Z,2.63
2023-08-26T18:26:33.317Z,2.63
2023-08-26T18:29:01.147Z,2.85
2023-08-26T18:31:30.334Z,3.72
2023-08-26T18:33:58.246Z,3.80
2023-08-26T18:36:26.071Z,3.03
2023-08-26T18:38:53.893Z,2.78
2023-08-26T18:41:21.749Z,3.22
2023-08-26T18:43:49.557Z,5.82
2023-08-26T18:46:17.392Z,3.55
2023-08-26T18:48:46.543Z,3.00
2023-08-26T18:51:14.362Z,5.60
2023-08-26T18:53:42.310Z,3.13
2023-08-26T18:56:10.079Z,3.60
2023-08-26T18:58:37.903Z,3.55
2023-08-26T19:01:05.793Z,4.43
2023-08-26T19:03:33.758Z,3.78
2023-08-26T19:06:02.921Z,2.22
2023-08-26T19:08:30.754Z,4.05
2023-08-26T19:10:58.777Z,5.25
2023-08-26T19:13:26.595Z,4.00
2023-08-26T19:15:55.242Z,5.47
2023-08-26T19:18:23.077Z,4.57
2023-08-26T19:20:51.846Z,2.63
2023-08-26T19:23:21.057Z,4.38
2023-08-26T19:25:50.253Z,3.55
2023-08-26T19:28:18.173Z,3.72
2023-08-26T19:30:47.077Z,4.25
2023-08-26T19:33:15.226Z,3.58
2023-08-26T19:35:43.237Z,4.82
2023-08-26T19:38:11.146Z,6.05
2023-08-26T19:40:40.303Z,6.80
2023-08-26T19:43:08.158Z,8.23
2023-08-26T19:45:35.986Z,6.63
2023-08-26T19:48:05.384Z,8.95
2023-08-26T19:50:33.404Z,9.82
2023-08-26T19:53:01.209Z,12.57
2023-08-26T19:55:29.161Z,10.05
2023-08-26T19:57:58.415Z,7.70
2023-08-26T20:00:27.598Z,5.97
2023-08-26T20:02:55.988Z,5.30
2023-08-26T20:05:24.396Z,5.20
2023-08-26T20:07:52.168Z,4.22
2023-08-26T20:10:20.101Z,4.63
2023-08-26T20:12:48.642Z,4.60
2023-08-26T20:15:17.911Z,4.90
2023-08-26T20:17:45.783Z,4.18
2023-08-26T20:20:14.328Z,5.75
2023-08-26T20:22:42.210Z,4.97
2023-08-26T20:25:10.279Z,4.97
2023-08-26T20:27:38.130Z,4.82
2023-08-26T20:30:08.499Z,3.58
2023-08-26T20:32:37.728Z,3.97
2023-08-26T20:35:07.453Z,6.35
2023-08-26T20:37:36.195Z,4.47
2023-08-26T20:40:04.280Z,4.50
2023-08-26T20:42:32.111Z,3.97
2023-08-26T20:44:59.912Z,5.20
2023-08-26T20:47:27.770Z,5.60
2023-08-26T20:50:02.737Z,4.70
2023-08-26T20:52:30.749Z,3.88
2023-08-26T20:54:58.540Z,4.55
2023-08-26T20:57:26.584Z,3.90
2023-08-26T20:59:54.413Z,6.30
2023-08-26T21:02:22.353Z,4.00
2023-08-26T21:04:50.142Z,4.05
2023-08-26T21:07:19.256Z,2.75
2023-08-26T21:09:47.165Z,3.67
2023-08-26T21:12:14.997Z,3.90
2023-08-26T21:14:42.774Z,5.43
2023-08-26T21:17:10.542Z,4.40
2023-08-26T21:19:38.390Z,4.03
2023-08-26T21:22:06.336Z,3.28
2023-08-26T21:24:35.451Z,5.53
2023-08-26T21:27:03.782Z,5.15
2023-08-26T21:29:31.626Z,4.97
2023-08-26T21:31:59.462Z,3.50
2023-08-26T21:34:27.258Z,5.32
2023-08-26T21:36:55.065Z,4.82
2023-08-26T21:39:23.272Z,5.30
2023-08-26T21:41:52.762Z,8.20
2023-08-26T21:44:22.248Z,4.50
2023-08-26T21:46:50.051Z,6.82
2023-08-26T21:49:17.893Z,6.30
2023-08-26T21:51:45.676Z,7.15
2023-08-26T21:54:13.447Z,5.38
2023-08-26T21:56:41.307Z,4.63
2023-08-26T21:59:10.457Z,5.05
2023-08-26T22:01:39.261Z,4.40
2023-08-26T22:04:07.937Z,5.65
2023-08-26T22:06:36.423Z,5.88
2023-08-26T22:09:05.019Z,7.75
2023-08-26T22:11:32.874Z,4.78
2023-08-26T22:14:00.684Z,6.28
2023-08-26T22:16:29.924Z,4.10
2023-08-26T22:18:57.744Z,4.82
2023-08-26T22:21:25.542Z,4.88
2023-08-26T22:23:53.371Z,5.55
2023-08-26T22:26:21.184Z,6.38
2023-08-26T22:28:48.994Z,3.45
2023-08-26T22:31:16.972Z,3.88
2023-08-26T22:33:46.161Z,5.15
2023-08-26T22:36:14.017Z,4.95
2023-08-26T22:38:41.805Z,4.45
2023-08-26T22:41:09.613Z,5.90
2023-08-26T22:43:37.810Z,5.32
2023-08-26T22:46:05.648Z,5.35
2023-08-26T22:48:33.456Z,5.30
2023-08-26T22:51:02.624Z,6.32
2023-08-26T22:53:30.408Z,9.60
2023-08-26T22:56:04.331Z,6.60
2023-08-26T22:58:32.151Z,5.97
2023-08-26T23:01:00.014Z,5.43
2023-08-26T23:03:27.892Z,6.45
2023-08-26T23:06:03.717Z,6.55
2023-08-26T23:08:31.547Z,6.07
2023-08-26T23:11:00.571Z,7.82
2023-08-26T23:13:28.395Z,6.72
2023-08-26T23:15:56.202Z,5.75
2023-08-26T23:18:24.022Z,7.28
2023-08-26T23:20:51.862Z,8.70
2023-08-26T23:23:21.072Z,6.85
2023-08-26T23:25:48.952Z,6.45
2023-08-26T23:28:17.163Z,7.13
2023-08-26T23:30:44.995Z,6.47
2023-08-26T23:33:12.817Z,6.82
2023-08-26T23:35:40.672Z,8.15
2023-08-26T23:38:08.797Z,6.78
2023-08-26T23:40:37.925Z,7.18
2023-08-26T23:43:05.999Z,7.82
2023-08-26T23:45:33.881Z,8.18
2023-08-26T23:48:01.774Z,7.72
2023-08-26T23:50:29.600Z,5.93
2023-08-26T23:52:57.789Z,7.93
2023-08-26T23:55:25.881Z,7.00
2023-08-26T23:57:55.459Z,9.52
